createdAt,value
2022-10-24T00:00:43.173Z,17.50
2022-10-24T00:02:45.269Z,17.50
2022-10-24T00:04:46.985Z,17.40
2022-10-24T00:06:48.604Z,17.40
2022-10-24T00:08:51.019Z,17.30
2022-10-24T00:10:52.705Z,17.20
2022-10-24T00:12:54.969Z,17.20
2022-10-24T00:14:56.629Z,17.10
2022-10-24T00:16:58.278Z,17.10
2022-10-24T00:18:59.892Z,17.10
2022-10-24T00:21:01.678Z,17.10
2022-10-24T00:23:03.341Z,17.10
2022-10-24T00:25:05.467Z,17.10
2022-10-24T00:27:07.085Z,17.10
2022-10-24T00:29:08.902Z,17.10
2022-10-24T00:31:14.688Z,17.30
2022-10-24T00:33:16.288Z,17.30
2022-10-24T00:35:18.536Z,17.40
2022-10-24T00:39:26.824Z,17.30
2022-10-24T00:41:34.889Z,17.30
2022-10-24T00:43:36.537Z,17.30
2022-10-24T00:45:43.553Z,17.30
2022-10-24T00:47:45.482Z,17.30
2022-10-24T00:50:00.620Z,17.20
2022-10-24T00:52:05.259Z,17.30
2022-10-24T00:54:10.473Z,17.30
2022-10-24T00:56:14.627Z,17.30
2022-10-24T00:58:18.048Z,17.30
2022-10-24T01:00:27.765Z,17.30
2022-10-24T01:02:29.499Z,17.30
2022-10-24T01:04:31.169Z,17.30
2022-10-24T01:07:11.204Z,17.30
2022-10-24T01:09:30.462Z,17.40
2022-10-24T01:11:32.070Z,17.40
2022-10-24T01:14:02.514Z,17.40
2022-10-24T01:16:08.674Z,17.30
2022-10-24T01:18:30.980Z,17.30
2022-10-24T01:21:13.323Z,17.40
2022-10-24T01:23:50.354Z,17.40
2022-10-24T01:26:01.075Z,17.40
2022-10-24T01:28:18.347Z,17.40
2022-10-24T01:30:20.337Z,17.30
2022-10-24T01:32:31.637Z,17.20
2022-10-24T01:34:41.602Z,17.10
2022-10-24T01:36:50.142Z,17.10
2022-10-24T01:38:57.302Z,17.10
2022-10-24T01:41:06.630Z,17.00
2022-10-24T01:43:12.843Z,16.90
2022-10-24T01:45:18.921Z,16.90
2022-10-24T01:47:28.661Z,16.90
2022-10-24T01:49:35.387Z,16.80
2022-10-24T01:51:38.542Z,16.80
2022-10-24T01:53:42.293Z,16.80
2022-10-24T01:55:45.457Z,16.80
2022-10-24T01:57:47.101Z,16.80
2022-10-24T01:59:49.084Z,16.80
2022-10-24T02:01:53.154Z,16.80
2022-10-24T02:03:57.850Z,16.80
2022-10-24T02:06:14.545Z,16.70
2022-10-24T02:08:21.893Z,16.60
2022-10-24T02:10:30.766Z,16.60
2022-10-24T02:12:32.749Z,16.70
2022-10-24T02:14:38.575Z,16.70
2022-10-24T02:16:41.558Z,16.80
2022-10-24T02:18:43.478Z,16.80
2022-10-24T02:21:08.036Z,16.70
2022-10-24T02:23:27.271Z,16.70
2022-10-24T02:25:35.353Z,16.70
2022-10-24T02:27:48.821Z,16.70
2022-10-24T02:30:02.157Z,16.70
2022-10-24T02:32:09.298Z,16.70
2022-10-24T02:36:24.206Z,16.80
2022-10-24T02:38:38.665Z,16.80
2022-10-24T02:40:42.972Z,16.80
2022-10-24T02:42:47.450Z,16.80
2022-10-24T02:44:49.382Z,16.90
2022-10-24T02:46:54.568Z,16.90
2022-10-24T02:49:02.071Z,16.90
2022-10-24T02:51:05.015Z,16.90
2022-10-24T02:53:09.912Z,16.80
2022-10-24T02:55:12.055Z,16.70
2022-10-24T02:57:15.164Z,16.60
2022-10-24T02:59:16.798Z,16.60
2022-10-24T03:01:18.815Z,16.60
2022-10-24T03:03:26.486Z,16.60
2022-10-24T03:05:28.208Z,16.50
2022-10-24T03:09:32.385Z,16.30
2022-10-24T03:11:34.240Z,16.20
2022-10-24T03:13:36.131Z,16.20
2022-10-24T03:15:38.074Z,16.20
2022-10-24T03:17:39.913Z,16.20
2022-10-24T03:19:41.600Z,16.10
2022-10-24T03:21:43.257Z,16.00
2022-10-24T03:23:44.930Z,15.90
2022-10-24T03:25:46.615Z,15.90
2022-10-24T03:27:48.279Z,15.80
2022-10-24T03:29:49.952Z,15.90
2022-10-24T03:31:51.570Z,15.90
2022-10-24T03:33:53.205Z,15.90
2022-10-24T03:35:55.461Z,15.90
2022-10-24T03:37:57.089Z,15.90
2022-10-24T03:39:59.563Z,16.00
2022-10-24T03:42:01.161Z,16.00
2022-10-24T03:44:02.872Z,16.00
2022-10-24T03:46:04.601Z,16.00
2022-10-24T03:48:06.826Z,15.90
2022-10-24T03:50:09.121Z,15.80
2022-10-24T03:52:11.609Z,15.80
2022-10-24T03:54:15.253Z,15.70
2022-10-24T03:56:16.927Z,15.70
2022-10-24T03:58:18.550Z,15.60
2022-10-24T04:00:20.586Z,15.60
2022-10-24T04:02:22.214Z,15.60
2022-10-24T04:04:23.850Z,15.60
2022-10-24T04:06:25.714Z,15.60
2022-10-24T04:08:27.410Z,15.60
2022-10-24T04:10:29.465Z,15.60
2022-10-24T04:12:31.377Z,15.70
2022-10-24T04:14:33.070Z,15.70
2022-10-24T04:16:34.956Z,15.80
2022-10-24T04:18:36.891Z,15.80
2022-10-24T04:20:38.643Z,15.90
2022-10-24T04:22:40.265Z,15.90
2022-10-24T04:24:42.177Z,15.90
2022-10-24T04:26:44.002Z,16.00
2022-10-24T04:28:47.128Z,16.00
2022-10-24T04:30:54.885Z,16.00
2022-10-24T04:32:56.841Z,16.00
2022-10-24T04:34:58.426Z,16.10
2022-10-24T04:37:00.087Z,16.10
2022-10-24T04:39:02.002Z,16.00
2022-10-24T04:41:06.217Z,16.10
2022-10-24T04:43:10.291Z,16.10
2022-10-24T04:45:12.280Z,16.10
2022-10-24T04:47:14.130Z,16.10
2022-10-24T04:49:15.957Z,16.10
2022-10-24T04:51:20.153Z,16.00
2022-10-24T04:53:24.154Z,16.10
2022-10-24T04:55:25.889Z,16.10
2022-10-24T04:57:27.747Z,16.00
2022-10-24T04:59:30.101Z,16.10
2022-10-24T05:01:31.964Z,16.10
2022-10-24T05:03:33.674Z,16.10
2022-10-24T05:05:35.259Z,16.10
2022-10-24T05:07:37.057Z,16.10
2022-10-24T05:09:38.765Z,16.00
2022-10-24T05:11:41.048Z,16.00
2022-10-24T05:13:42.792Z,16.10
2022-10-24T05:15:44.634Z,16.00
2022-10-24T05:17:46.334Z,15.90
2022-10-24T05:19:47.977Z,16.00
2022-10-24T05:21:49.697Z,16.00
2022-10-24T05:23:51.329Z,16.00
2022-10-24T05:25:53.569Z,15.90
2022-10-24T05:27:55.513Z,15.90
2022-10-24T05:29:57.186Z,16.00
2022-10-24T05:31:58.835Z,16.00
2022-10-24T05:34:00.472Z,16.00
2022-10-24T05:36:02.174Z,16.10
2022-10-24T05:38:03.938Z,16.10
2022-10-24T05:40:10.467Z,16.10
2022-10-24T05:42:12.372Z,16.20
2022-10-24T05:44:15.243Z,16.20
2022-10-24T05:46:16.862Z,16.20
2022-10-24T05:48:18.621Z,16.20
2022-10-24T05:50:20.258Z,16.20
2022-10-24T05:52:21.898Z,16.20
2022-10-24T05:54:23.576Z,16.10
2022-10-24T05:56:25.870Z,16.00
2022-10-24T05:58:27.655Z,16.00
2022-10-24T06:00:29.276Z,15.90
2022-10-24T06:02:31.318Z,16.00
2022-10-24T06:04:33.156Z,15.90
2022-10-24T06:06:40.166Z,15.90
2022-10-24T06:08:42.007Z,15.90
2022-10-24T06:10:47.823Z,16.00
2022-10-24T06:12:49.453Z,15.90
2022-10-24T06:14:51.100Z,15.90
2022-10-24T06:16:52.838Z,15.90
2022-10-24T06:18:54.489Z,15.90
2022-10-24T06:21:00.191Z,15.90
2022-10-24T06:23:01.928Z,15.90
2022-10-24T06:25:04.386Z,15.90
2022-10-24T06:27:06.473Z,15.90
2022-10-24T06:29:08.062Z,15.80
2022-10-24T06:31:11.192Z,15.60
2022-10-24T06:33:12.834Z,15.40
2022-10-24T06:35:15.919Z,15.20
2022-10-24T06:37:17.624Z,15.00
2022-10-24T06:39:19.266Z,14.90
2022-10-24T06:41:20.984Z,14.80
2022-10-24T06:43:22.681Z,14.70
2022-10-24T06:45:24.684Z,14.70
2022-10-24T06:47:26.300Z,14.60
2022-10-24T06:49:27.941Z,14.50
2022-10-24T06:51:29.624Z,14.40
2022-10-24T06:53:32.447Z,14.30
2022-10-24T06:55:34.635Z,14.30
2022-10-24T06:57:36.337Z,14.30
2022-10-24T06:59:38.084Z,14.30
2022-10-24T07:01:40.014Z,14.30
2022-10-24T07:03:42.493Z,14.30
2022-10-24T07:05:44.219Z,14.30
2022-10-24T07:07:46.041Z,14.30
2022-10-24T07:09:56.275Z,14.40
2022-10-24T07:11:57.958Z,14.40
2022-10-24T07:14:01.638Z,14.40
2022-10-24T07:16:04.952Z,14.50
2022-10-24T07:18:06.569Z,14.50
2022-10-24T07:20:08.911Z,14.50
2022-10-24T07:22:11.386Z,14.50
2022-10-24T07:24:13.265Z,14.30
2022-10-24T07:26:16.420Z,14.10
2022-10-24T07:28:18.131Z,14.00
2022-10-24T07:30:19.770Z,13.90
2022-10-24T07:32:21.780Z,13.80
2022-10-24T07:34:23.690Z,13.70
2022-10-24T07:36:26.460Z,13.60
2022-10-24T07:38:28.091Z,13.60
2022-10-24T07:40:29.708Z,13.50
2022-10-24T07:42:31.328Z,13.50
2022-10-24T07:44:33.049Z,13.50
2022-10-24T07:46:34.703Z,13.60
2022-10-24T07:48:37.867Z,13.60
2022-10-24T07:50:45.646Z,13.60
2022-10-24T07:52:47.280Z,13.60
2022-10-24T07:54:48.892Z,13.60
2022-10-24T07:56:50.535Z,13.70
2022-10-24T07:58:52.234Z,13.70
2022-10-24T08:00:54.161Z,13.70
2022-10-24T08:02:56.028Z,13.70
2022-10-24T08:04:57.644Z,13.70
2022-10-24T08:06:59.499Z,13.80
2022-10-24T08:09:01.474Z,13.80
2022-10-24T08:11:08.502Z,13.80
2022-10-24T08:13:12.837Z,13.80
2022-10-24T08:15:15.429Z,13.70
2022-10-24T08:17:17.835Z,13.70
2022-10-24T08:19:19.551Z,13.60
2022-10-24T08:21:22.954Z,13.60
2022-10-24T08:23:25.589Z,13.60
2022-10-24T08:25:27.426Z,13.60
2022-10-24T08:27:29.996Z,13.60
2022-10-24T08:29:31.722Z,13.60
2022-10-24T08:31:33.391Z,13.60
2022-10-24T08:33:35.247Z,13.50
2022-10-24T08:35:37.589Z,13.50
2022-10-24T08:37:39.305Z,13.50
2022-10-24T08:39:41.126Z,13.40
2022-10-24T08:41:47.139Z,13.40
2022-10-24T08:43:48.897Z,13.40
2022-10-24T08:46:16.815Z,13.40
2022-10-24T08:48:27.189Z,13.40
2022-10-24T08:50:33.561Z,13.50
2022-10-24T08:52:43.790Z,13.50
2022-10-24T08:54:46.714Z,13.50
2022-10-24T08:56:48.858Z,13.60
2022-10-24T08:58:51.860Z,13.60
2022-10-24T09:00:57.532Z,13.70
2022-10-24T09:03:26.590Z,13.70
2022-10-24T09:05:46.824Z,13.70
2022-10-24T09:07:54.509Z,13.80
2022-10-24T09:10:24.088Z,13.80
2022-10-24T09:12:26.305Z,13.80
2022-10-24T09:14:31.020Z,13.80
2022-10-24T09:16:33.005Z,13.80
2022-10-24T09:18:41.573Z,13.80
2022-10-24T09:20:43.217Z,13.80
2022-10-24T09:22:45.405Z,13.80
2022-10-24T09:24:58.958Z,13.80
2022-10-24T09:27:04.450Z,13.80
2022-10-24T09:29:06.305Z,13.80
2022-10-24T09:31:23.060Z,13.80
2022-10-24T09:33:31.191Z,13.80
2022-10-24T09:35:35.364Z,13.80
2022-10-24T09:37:44.499Z,13.80
2022-10-24T09:40:05.881Z,13.90
2022-10-24T09:42:21.900Z,13.90
2022-10-24T09:44:37.617Z,13.80
2022-10-24T09:46:45.340Z,13.90
2022-10-24T09:48:52.840Z,13.90
2022-10-24T09:50:55.706Z,13.90
2022-10-24T09:52:59.262Z,14.00
2022-10-24T09:55:20.454Z,14.00
2022-10-24T09:57:25.767Z,14.00
2022-10-24T09:59:41.576Z,14.00
2022-10-24T10:01:44.279Z,14.10
2022-10-24T10:04:08.835Z,14.10
2022-10-24T10:06:21.037Z,14.10
2022-10-24T10:08:29.818Z,14.10
2022-10-24T10:10:35.469Z,14.20
2022-10-24T10:12:42.478Z,14.10
2022-10-24T10:14:44.129Z,14.10
2022-10-24T10:16:46.117Z,14.20
2022-10-24T10:18:48.571Z,14.30
2022-10-24T10:21:04.165Z,14.30
2022-10-24T10:23:18.265Z,14.40
2022-10-24T10:25:32.778Z,14.40
2022-10-24T10:27:40.702Z,14.60
2022-10-24T10:29:42.306Z,14.80
2022-10-24T10:31:47.958Z,14.90
2022-10-24T10:33:55.683Z,14.90
2022-10-24T10:36:19.370Z,15.00
2022-10-24T10:38:55.588Z,15.00
2022-10-24T10:41:07.013Z,15.10
2022-10-24T10:43:26.332Z,15.10
2022-10-24T10:45:34.429Z,15.20
2022-10-24T10:47:41.234Z,15.30
2022-10-24T10:49:43.150Z,15.40
2022-10-24T10:51:51.797Z,15.40
2022-10-24T10:54:20.042Z,15.40
2022-10-24T10:56:30.813Z,15.50
2022-10-24T10:58:45.451Z,15.50
2022-10-24T11:01:11.406Z,15.60
2022-10-24T11:03:37.946Z,15.60
2022-10-24T11:05:48.511Z,15.70
2022-10-24T11:08:08.967Z,15.70
2022-10-24T11:10:14.869Z,15.60
2022-10-24T11:12:38.862Z,15.60
2022-10-24T11:14:56.466Z,15.60
2022-10-24T11:17:23.017Z,15.60
2022-10-24T11:19:44.570Z,15.50
2022-10-24T11:21:46.948Z,15.60
2022-10-24T11:23:55.221Z,15.50
2022-10-24T11:26:22.610Z,15.50
2022-10-24T11:28:46.491Z,15.50
2022-10-24T11:31:23.352Z,15.40
2022-10-24T11:33:30.613Z,15.50
2022-10-24T11:35:34.375Z,15.50
2022-10-24T11:37:42.229Z,15.50
2022-10-24T11:40:05.768Z,15.50
2022-10-24T11:42:15.467Z,15.40
2022-10-24T11:44:22.943Z,15.40
2022-10-24T11:46:31.737Z,15.40
2022-10-24T11:48:45.162Z,15.40
2022-10-24T11:50:48.063Z,15.50
2022-10-24T11:52:54.462Z,15.50
2022-10-24T11:55:08.667Z,15.50
2022-10-24T11:57:25.962Z,15.60
2022-10-24T11:59:28.079Z,15.70
2022-10-24T12:01:38.804Z,15.70
2022-10-24T12:04:01.250Z,15.60
2022-10-24T12:06:29.001Z,15.60
2022-10-24T12:09:08.045Z,15.60
2022-10-24T12:11:55.893Z,15.70
2022-10-24T12:16:27.778Z,15.60
2022-10-24T12:18:41.547Z,15.60
2022-10-24T12:20:43.317Z,15.60
2022-10-24T12:22:45.996Z,15.60
2022-10-24T12:24:48.037Z,15.60
2022-10-24T12:26:59.698Z,15.70
2022-10-24T12:29:04.625Z,15.70
2022-10-24T12:31:11.072Z,15.70
2022-10-24T12:33:26.012Z,15.70
2022-10-24T12:35:31.650Z,15.60
2022-10-24T12:37:35.283Z,15.60
2022-10-24T12:39:38.989Z,15.70
2022-10-24T12:41:41.504Z,15.70
2022-10-24T12:43:45.405Z,15.70
2022-10-24T12:45:47.109Z,15.60
2022-10-24T12:49:59.253Z,15.70
2022-10-24T12:52:32.703Z,15.70
2022-10-24T12:54:45.810Z,15.70
2022-10-24T12:56:51.072Z,15.70
2022-10-24T12:59:17.958Z,15.80
2022-10-24T13:01:34.498Z,15.70
2022-10-24T13:03:42.214Z,15.70
2022-10-24T13:06:05.229Z,15.80
2022-10-24T13:08:12.646Z,15.80
2022-10-24T13:10:29.195Z,15.80
2022-10-24T13:13:03.366Z,15.90
2022-10-24T13:15:16.848Z,15.90
2022-10-24T13:17:36.149Z,16.00
2022-10-24T13:19:38.009Z,16.10
2022-10-24T13:21:51.698Z,16.20
2022-10-24T13:23:53.917Z,16.30
2022-10-24T13:25:58.546Z,16.40
2022-10-24T13:28:30.326Z,16.30
2022-10-24T13:30:32.070Z,16.30
2022-10-24T13:32:35.960Z,16.30
2022-10-24T13:35:05.766Z,16.40
2022-10-24T13:37:21.535Z,16.30
2022-10-24T13:39:31.112Z,16.40
2022-10-24T13:41:44.700Z,16.30
2022-10-24T13:43:51.639Z,16.20
2022-10-24T13:45:53.232Z,16.20
2022-10-24T13:48:10.493Z,16.30
2022-10-24T13:50:26.067Z,16.30
2022-10-24T13:52:46.869Z,16.20
2022-10-24T13:55:00.197Z,16.20
2022-10-24T13:57:02.420Z,16.20
2022-10-24T13:59:04.424Z,16.10
2022-10-24T14:01:14.501Z,16.10
2022-10-24T14:03:22.531Z,16.00
2022-10-24T14:05:32.477Z,16.00
2022-10-24T14:07:34.519Z,16.00
2022-10-24T14:09:41.821Z,15.90
2022-10-24T14:11:48.454Z,16.00
2022-10-24T14:13:54.040Z,15.90
2022-10-24T14:16:02.138Z,15.90
2022-10-24T14:18:13.360Z,15.90
2022-10-24T14:20:24.018Z,15.70
2022-10-24T14:22:40.698Z,15.70
2022-10-24T14:24:43.969Z,15.70
2022-10-24T14:26:47.121Z,15.60
2022-10-24T14:28:58.799Z,15.50
2022-10-24T14:31:05.301Z,15.50
2022-10-24T14:33:14.316Z,15.40
2022-10-24T14:35:16.623Z,15.50
2022-10-24T14:37:27.013Z,15.40
2022-10-24T14:39:29.333Z,15.40
2022-10-24T14:41:50.550Z,15.40
2022-10-24T14:43:53.030Z,15.40
2022-10-24T14:46:33.709Z,15.40
2022-10-24T14:48:36.724Z,15.40
2022-10-24T14:50:44.757Z,15.40
2022-10-24T14:52:47.297Z,15.50
2022-10-24T14:55:07.666Z,15.60
2022-10-24T14:57:18.608Z,15.70
2022-10-24T14:59:29.803Z,15.90
2022-10-24T15:01:32.050Z,16.30
2022-10-24T15:03:33.730Z,16.50
2022-10-24T15:05:40.050Z,16.80
2022-10-24T15:07:52.295Z,17.00
2022-10-24T15:10:12.893Z,17.10
2022-10-24T15:12:15.101Z,17.00
2022-10-24T15:14:36.206Z,16.90
2022-10-24T15:16:40.707Z,16.80
2022-10-24T15:18:43.258Z,16.60
2022-10-24T15:20:47.977Z,16.50
2022-10-24T15:22:52.201Z,16.40
2022-10-24T15:24:56.510Z,16.30
2022-10-24T15:27:12.626Z,16.10
2022-10-24T15:29:14.213Z,15.90
2022-10-24T15:31:19.050Z,15.80
2022-10-24T15:33:20.682Z,15.60
2022-10-24T15:35:22.912Z,15.50
2022-10-24T15:37:25.613Z,15.40
2022-10-24T15:39:27.434Z,15.30
2022-10-24T15:41:29.284Z,15.20
2022-10-24T15:43:30.950Z,15.20
2022-10-24T15:45:33.291Z,15.20
2022-10-24T15:47:34.950Z,15.10
2022-10-24T15:49:36.633Z,15.10
2022-10-24T15:51:40.131Z,15.00
2022-10-24T15:53:42.017Z,14.90
2022-10-24T15:55:43.838Z,14.90
2022-10-24T15:57:46.797Z,14.80
2022-10-24T15:59:48.492Z,14.70
2022-10-24T16:01:54.068Z,14.70
2022-10-24T16:03:57.033Z,14.80
2022-10-24T16:05:59.462Z,14.80
2022-10-24T16:08:01.144Z,14.80
2022-10-24T16:10:02.837Z,14.80
2022-10-24T16:12:04.985Z,14.80
2022-10-24T16:14:06.709Z,14.80
2022-10-24T16:16:08.727Z,14.70
2022-10-24T16:18:11.850Z,14.60
2022-10-24T16:20:14.274Z,14.60
2022-10-24T16:22:16.006Z,14.50
2022-10-24T16:24:18.555Z,14.50
2022-10-24T16:26:20.277Z,14.50
2022-10-24T16:28:23.902Z,14.40
2022-10-24T16:30:29.488Z,14.30
2022-10-24T16:32:31.182Z,14.20
2022-10-24T16:34:32.804Z,14.20
2022-10-24T16:36:34.713Z,14.20
2022-10-24T16:38:36.379Z,14.10
2022-10-24T16:42:51.714Z,14.20
2022-10-24T16:44:53.805Z,14.10
2022-10-24T16:46:55.451Z,14.20
2022-10-24T16:48:57.225Z,14.20
2022-10-24T16:50:59.048Z,14.20
2022-10-24T16:53:04.044Z,14.40
2022-10-24T16:55:05.993Z,14.30
2022-10-24T16:57:07.829Z,14.30
2022-10-24T16:59:11.708Z,14.20
2022-10-24T17:01:17.321Z,14.30
2022-10-24T17:03:19.228Z,14.30
2022-10-24T17:05:24.364Z,14.30
2022-10-24T17:07:26.278Z,14.40
2022-10-24T17:09:28.233Z,14.50
2022-10-24T17:11:45.011Z,14.50
2022-10-24T17:13:47.570Z,14.50
2022-10-24T17:15:49.361Z,14.50
2022-10-24T17:17:51.036Z,14.40
2022-10-24T17:19:52.785Z,14.40
2022-10-24T17:21:54.625Z,14.40
2022-10-24T17:23:56.411Z,14.30
2022-10-24T17:25:59.136Z,14.30
2022-10-24T17:28:00.840Z,14.20
2022-10-24T17:30:02.665Z,14.20
2022-10-24T17:32:05.688Z,14.10
2022-10-24T17:34:08.680Z,14.10
2022-10-24T17:36:20.839Z,14.10
2022-10-24T17:38:43.756Z,14.10
2022-10-24T17:40:48.546Z,14.10
2022-10-24T17:42:50.675Z,14.00
2022-10-24T17:44:52.456Z,14.00
2022-10-24T17:46:57.503Z,14.00
2022-10-24T17:49:00.129Z,14.10
2022-10-24T17:51:02.142Z,14.10
2022-10-24T17:53:03.875Z,14.10
2022-10-24T17:55:46.084Z,14.10
2022-10-24T17:57:48.255Z,14.10
2022-10-24T17:59:50.089Z,14.10
2022-10-24T18:01:51.831Z,14.10
2022-10-24T18:03:53.751Z,14.10
2022-10-24T18:05:59.901Z,14.00
2022-10-24T18:08:01.519Z,14.00
2022-10-24T18:10:03.541Z,13.90
2022-10-24T18:12:05.567Z,13.90
2022-10-24T18:14:07.543Z,13.80
2022-10-24T18:16:11.870Z,13.80
2022-10-24T18:18:13.530Z,13.80
2022-10-24T18:20:16.252Z,13.80
2022-10-24T18:22:17.902Z,13.80
2022-10-24T18:24:19.578Z,13.80
2022-10-24T18:26:26.830Z,13.80
2022-10-24T18:28:28.474Z,13.80
2022-10-24T18:30:30.273Z,13.30
2022-10-24T18:32:32.688Z,12.30
2022-10-24T18:34:34.514Z,11.20
2022-10-24T18:36:36.886Z,10.60
2022-10-24T18:38:40.164Z,10.20
2022-10-24T18:40:42.117Z,10.00
2022-10-24T18:43:04.194Z,9.90
2022-10-24T18:45:07.244Z,9.90
2022-10-24T18:47:15.285Z,10.00
2022-10-24T18:49:17.429Z,10.10
2022-10-24T18:51:56.615Z,10.20
2022-10-24T18:54:03.691Z,10.30
2022-10-24T18:56:05.611Z,10.30
2022-10-24T18:58:13.165Z,10.40
2022-10-24T19:00:23.830Z,10.40
2022-10-24T19:05:05.723Z,10.50
2022-10-24T19:07:09.275Z,10.60
2022-10-24T19:09:17.179Z,10.60
2022-10-24T19:11:19.117Z,10.60
2022-10-24T19:13:21.021Z,10.60
2022-10-24T19:15:23.007Z,10.50
2022-10-24T19:17:24.746Z,10.50
2022-10-24T19:19:30.122Z,10.50
2022-10-24T19:21:31.796Z,10.50
2022-10-24T19:23:33.387Z,10.60
2022-10-24T19:25:35.049Z,10.60
2022-10-24T19:27:37.369Z,10.70
2022-10-24T19:29:39.089Z,10.70
2022-10-24T19:31:40.701Z,10.60
2022-10-24T19:33:42.692Z,10.60
2022-10-24T19:35:47.339Z,10.60
2022-10-24T19:37:49.569Z,10.60
2022-10-24T19:39:52.133Z,10.60
2022-10-24T19:41:53.772Z,10.60
2022-10-24T19:43:55.413Z,10.60
2022-10-24T19:48:19.005Z,10.60
2022-10-24T19:50:21.165Z,10.60
2022-10-24T19:52:22.986Z,10.60
2022-10-24T19:54:24.852Z,10.60
2022-10-24T19:56:28.606Z,10.60
2022-10-24T19:58:30.293Z,10.60
2022-10-24T20:00:31.885Z,10.60
2022-10-24T20:02:34.310Z,10.60
2022-10-24T20:04:40.196Z,10.60
2022-10-24T20:06:42.017Z,10.70
2022-10-24T20:08:45.082Z,10.60
2022-10-24T20:10:54.142Z,10.70
2022-10-24T20:12:55.981Z,10.80
2022-10-24T20:14:57.609Z,10.80
2022-10-24T20:16:59.379Z,10.80
2022-10-24T20:19:01.294Z,10.90
2022-10-24T20:21:05.082Z,10.90
2022-10-24T20:23:06.833Z,10.90
2022-10-24T20:25:08.462Z,10.90
2022-10-24T20:27:10.271Z,10.90
2022-10-24T20:29:15.118Z,10.80
2022-10-24T20:31:23.835Z,10.80
2022-10-24T20:33:25.521Z,10.80
2022-10-24T20:35:27.111Z,10.80
2022-10-24T20:37:28.778Z,10.70
2022-10-24T20:39:30.425Z,10.70
2022-10-24T20:41:32.172Z,10.70
2022-10-24T20:43:34.299Z,10.70
2022-10-24T20:45:40.358Z,10.70
2022-10-24T20:47:41.994Z,10.70
2022-10-24T20:49:43.686Z,10.80
2022-10-24T20:51:45.403Z,10.80
2022-10-24T20:53:47.486Z,10.80
2022-10-24T20:55:49.217Z,10.80
2022-10-24T20:57:51.686Z,10.80
2022-10-24T20:59:53.352Z,10.80
2022-10-24T21:01:55.141Z,10.80
2022-10-24T21:03:58.260Z,10.80
2022-10-24T21:05:59.869Z,10.70
2022-10-24T21:08:01.505Z,10.70
2022-10-24T21:10:04.677Z,10.80
2022-10-24T21:12:06.457Z,10.80
2022-10-24T21:14:11.629Z,10.70
2022-10-24T21:16:13.337Z,10.70
2022-10-24T21:18:15.158Z,10.70
2022-10-24T21:20:16.922Z,10.70
2022-10-24T21:22:18.574Z,10.70
2022-10-24T21:24:20.234Z,10.70
2022-10-24T21:26:22.377Z,10.70
2022-10-24T21:28:23.975Z,10.70
2022-10-24T21:30:26.364Z,10.60
2022-10-24T21:32:28.041Z,10.50
2022-10-24T21:34:33.394Z,10.50
2022-10-24T21:36:36.513Z,10.50
2022-10-24T21:38:38.235Z,10.40
2022-10-24T21:40:39.865Z,10.40
2022-10-24T21:42:41.513Z,10.30
2022-10-24T21:44:43.349Z,10.30
2022-10-24T21:46:44.977Z,10.30
2022-10-24T21:48:47.334Z,10.30
2022-10-24T21:50:49.109Z,10.20
2022-10-24T21:52:50.917Z,10.20
2022-10-24T21:54:52.623Z,10.30
2022-10-24T21:56:54.283Z,10.30
2022-10-24T21:59:00.984Z,10.30
2022-10-24T22:01:12.235Z,10.20
2022-10-24T22:03:13.896Z,10.20
2022-10-24T22:05:15.645Z,10.20
2022-10-24T22:07:17.314Z,10.20
2022-10-24T22:09:21.314Z,10.10
2022-10-24T22:11:25.488Z,10.10
2022-10-24T22:13:27.775Z,10.10
2022-10-24T22:15:29.397Z,10.10
2022-10-24T22:17:31.017Z,10.10
2022-10-24T22:19:32.641Z,10.00
2022-10-24T22:21:37.866Z,10.00
2022-10-24T22:23:39.570Z,9.90
2022-10-24T22:25:41.335Z,10.00
2022-10-24T22:27:43.073Z,10.00
2022-10-24T22:29:44.757Z,9.90
2022-10-24T22:31:47.584Z,9.90
2022-10-24T22:33:49.858Z,9.90
2022-10-24T22:36:19.550Z,9.80
2022-10-24T22:38:21.372Z,9.90
2022-10-24T22:40:28.899Z,10.00
2022-10-24T22:42:30.684Z,10.00
2022-10-24T22:44:32.669Z,10.00
2022-10-24T22:46:52.405Z,10.00
2022-10-24T22:48:58.743Z,10.00
2022-10-24T22:51:00.498Z,10.10
2022-10-24T22:53:02.456Z,10.10
2022-10-24T22:55:05.799Z,10.10
2022-10-24T22:57:10.328Z,10.10
2022-10-24T22:59:12.289Z,10.00
2022-10-24T23:01:28.729Z,10.00
2022-10-24T23:03:42.109Z,10.00
2022-10-24T23:05:59.710Z,10.00
2022-10-24T23:08:09.479Z,10.00
2022-10-24T23:10:16.714Z,10.00
2022-10-24T23:12:20.457Z,10.00
2022-10-24T23:14:22.322Z,10.00
2022-10-24T23:16:47.234Z,10.00
2022-10-24T23:18:49.371Z,9.90
2022-10-24T23:21:07.158Z,9.90
2022-10-24T23:23:28.064Z,9.90
2022-10-24T23:25:32.033Z,9.80
2022-10-24T23:27:40.132Z,9.80
2022-10-24T23:29:44.668Z,9.70
2022-10-24T23:31:46.562Z,9.70
2022-10-24T23:33:48.536Z,9.80
2022-10-24T23:35:56.274Z,9.90
2022-10-24T23:37:58.219Z,9.90
2022-10-24T23:40:01.959Z,10.00
2022-10-24T23:42:04.811Z,10.00
2022-10-24T23:44:07.186Z,10.00
2022-10-24T23:46:26.417Z,9.90
2022-10-24T23:48:42.977Z,9.90
2022-10-24T23:51:11.033Z,9.90
2022-10-24T23:53:16.105Z,9.90
2022-10-24T23:55:18.278Z,9.90
2022-10-24T23:57:20.837Z,9.90
2022-10-24T23:59:22.541Z,9.90
